createdAt,value
2022-09-12T00:01:22.393Z,13.20
2022-09-12T00:03:52.669Z,12.60
2022-09-12T00:06:26.423Z,12.60
2022-09-12T00:08:58.545Z,13.30
2022-09-12T00:11:26.581Z,12.70
2022-09-12T00:14:00.261Z,12.60
2022-09-12T00:16:29.120Z,12.70
2022-09-12T00:18:55.946Z,13.40
2022-09-12T00:21:23.463Z,12.60
2022-09-12T00:23:50.790Z,12.60
2022-09-12T00:26:19.177Z,12.60
2022-09-12T00:28:46.497Z,12.60
2022-09-12T00:31:20.468Z,12.50
2022-09-12T00:33:47.579Z,12.50
2022-09-12T00:36:18.121Z,12.90
2022-09-12T00:38:46.068Z,12.50
2022-09-12T00:41:26.395Z,12.30
2022-09-12T00:44:01.371Z,12.30
2022-09-12T00:46:41.950Z,12.30
2022-09-12T00:49:26.525Z,13.00
2022-09-12T00:52:10.640Z,12.20
2022-09-12T00:54:52.971Z,12.20
2022-09-12T00:57:22.426Z,12.20
2022-09-12T01:00:20.416Z,12.10
2022-09-12T01:02:51.788Z,12.10
2022-09-12T01:05:18.979Z,12.10
2022-09-12T01:07:48.624Z,12.10
2022-09-12T01:10:15.838Z,12.10
2022-09-12T01:12:44.194Z,12.10
2022-09-12T01:15:11.828Z,12.10
2022-09-12T01:18:09.015Z,12.90
2022-09-12T01:20:46.124Z,12.70
2022-09-12T01:23:12.937Z,12.40
2022-09-12T01:26:03.262Z,12.00
2022-09-12T01:28:29.869Z,12.00
2022-09-12T01:31:25.465Z,12.40
2022-09-12T01:34:14.162Z,12.40
2022-09-12T01:36:51.327Z,12.10
2022-09-12T01:39:32.497Z,12.10
2022-09-12T01:42:16.867Z,12.10
2022-09-12T01:44:57.423Z,12.10
2022-09-12T01:47:39.171Z,12.10
2022-09-12T01:50:16.246Z,12.10
2022-09-12T01:52:52.179Z,12.10
2022-09-12T01:55:56.956Z,12.10
2022-09-12T01:58:29.390Z,12.10
2022-09-12T02:01:03.517Z,12.00
2022-09-12T02:03:44.569Z,12.00
2022-09-12T02:06:44.432Z,12.00
2022-09-12T02:09:32.100Z,12.00
2022-09-12T02:12:01.558Z,12.00
2022-09-12T02:14:42.610Z,11.90
2022-09-12T02:17:16.687Z,11.90
2022-09-12T02:19:58.341Z,11.90
2022-09-12T02:22:29.349Z,13.10
2022-09-12T02:24:59.750Z,11.80
2022-09-12T02:27:37.749Z,10.70
2022-09-12T02:30:06.532Z,11.80
2022-09-12T02:32:38.175Z,11.70
2022-09-12T02:35:21.457Z,11.70
2022-09-12T02:38:07.391Z,11.60
2022-09-12T02:40:35.706Z,11.60
2022-09-12T02:43:04.649Z,11.60
2022-09-12T02:45:34.379Z,11.60
2022-09-12T02:48:13.615Z,12.30
2022-09-12T02:50:41.296Z,11.50
2022-09-12T02:53:09.297Z,11.50
2022-09-12T02:55:38.522Z,12.60
2022-09-12T02:58:08.689Z,11.40
2022-09-12T03:00:46.729Z,12.10
2022-09-12T03:03:22.303Z,11.30
2022-09-12T03:05:48.959Z,11.30
2022-09-12T03:09:01.458Z,11.20
2022-09-12T03:12:11.906Z,11.20
2022-09-12T03:15:10.874Z,12.00
2022-09-12T03:17:44.024Z,11.10
2022-09-12T03:20:16.891Z,11.10
2022-09-12T03:22:54.641Z,11.70
2022-09-12T03:25:23.861Z,11.00
2022-09-12T03:28:06.267Z,10.90
2022-09-12T03:30:39.488Z,10.90
2022-09-12T03:33:06.430Z,10.90
2022-09-12T03:35:33.158Z,10.80
2022-09-12T03:37:59.830Z,11.40
2022-09-12T03:40:26.731Z,10.80
2022-09-12T03:42:53.765Z,10.80
2022-09-12T03:45:20.588Z,10.70
2022-09-12T03:47:47.290Z,11.10
2022-09-12T03:50:14.103Z,10.70
2022-09-12T03:52:40.749Z,10.70
2022-09-12T03:55:07.888Z,10.70
2022-09-12T03:57:34.569Z,10.60
2022-09-12T04:00:02.135Z,11.70
2022-09-12T04:02:29.274Z,10.60
2022-09-12T04:04:55.974Z,10.70
2022-09-12T04:07:22.718Z,10.70
2022-09-12T04:09:49.569Z,10.70
2022-09-12T04:12:16.414Z,10.70
2022-09-12T04:14:43.134Z,10.70
2022-09-12T04:17:09.835Z,11.30
2022-09-12T04:19:36.595Z,10.70
2022-09-12T04:22:04.851Z,10.70
2022-09-12T04:24:31.577Z,10.80
2022-09-12T04:26:58.647Z,10.80
2022-09-12T04:29:25.396Z,10.80
2022-09-12T04:31:52.060Z,10.80
2022-09-12T04:34:18.802Z,10.80
2022-09-12T04:36:45.482Z,10.70
2022-09-12T04:39:12.536Z,11.90
2022-09-12T04:41:42.032Z,11.80
2022-09-12T04:44:12.688Z,10.70
2022-09-12T04:46:44.992Z,10.70
2022-09-12T04:49:13.199Z,10.70
2022-09-12T04:51:41.905Z,10.90
2022-09-12T04:54:16.327Z,10.70
2022-09-12T04:56:45.336Z,10.70
2022-09-12T04:59:13.838Z,10.70
2022-09-12T05:01:40.543Z,10.70
2022-09-12T05:04:07.834Z,10.80
2022-09-12T05:06:37.222Z,10.80
2022-09-12T05:09:06.095Z,10.90
2022-09-12T05:12:02.663Z,11.00
2022-09-12T05:14:22.828Z,11.10
2022-09-12T05:16:50.010Z,12.30
2022-09-12T05:19:17.189Z,11.40
2022-09-12T05:21:43.898Z,11.40
2022-09-12T05:24:11.255Z,11.50
2022-09-12T05:26:38.263Z,11.60
2022-09-12T05:29:07.025Z,11.90
2022-09-12T05:31:34.700Z,11.80
2022-09-12T05:34:01.768Z,11.80
2022-09-12T05:36:31.193Z,11.90
2022-09-12T05:38:59.873Z,11.90
2022-09-12T05:41:31.074Z,12.10
2022-09-12T05:44:00.387Z,12.10
2022-09-12T05:46:35.404Z,12.10
2022-09-12T05:49:07.226Z,12.20
2022-09-12T05:51:38.001Z,12.20
2022-09-12T05:54:06.002Z,12.30
2022-09-12T05:56:34.964Z,12.30
2022-09-12T05:59:13.115Z,12.30
2022-09-12T06:01:40.395Z,12.50
2022-09-12T06:04:07.985Z,13.20
2022-09-12T06:06:41.785Z,12.60
2022-09-12T06:09:09.210Z,13.20
2022-09-12T06:11:37.388Z,12.70
2022-09-12T06:14:04.667Z,13.50
2022-09-12T06:16:33.376Z,13.50
2022-09-12T06:19:03.422Z,13.80
2022-09-12T06:21:31.341Z,13.60
2022-09-12T06:24:01.416Z,13.00
2022-09-12T06:26:29.268Z,13.60
2022-09-12T06:28:57.893Z,13.20
2022-09-12T06:31:28.796Z,13.20
2022-09-12T06:33:57.403Z,13.40
2022-09-12T06:36:26.792Z,13.40
2022-09-12T06:39:02.661Z,13.50
2022-09-12T06:41:31.266Z,13.60
2022-09-12T06:43:58.651Z,13.60
2022-09-12T06:46:26.439Z,13.60
2022-09-12T06:48:55.476Z,14.10
2022-09-12T06:51:22.266Z,13.80
2022-09-12T06:53:50.022Z,13.80
2022-09-12T06:56:19.754Z,13.90
2022-09-12T06:58:48.022Z,13.90
2022-09-12T07:01:26.692Z,14.00
2022-09-12T07:03:55.917Z,14.00
2022-09-12T07:06:29.783Z,14.10
2022-09-12T07:08:58.647Z,14.20
2022-09-12T07:11:28.251Z,14.20
2022-09-12T07:13:56.539Z,14.30
2022-09-12T07:16:23.866Z,14.30
2022-09-12T07:18:52.496Z,14.40
2022-09-12T07:21:19.731Z,14.50
2022-09-12T07:23:47.498Z,14.60
2022-09-12T07:26:16.284Z,14.60
2022-09-12T07:28:43.900Z,14.60
2022-09-12T07:31:13.947Z,15.10
2022-09-12T07:33:41.776Z,14.80
2022-09-12T07:36:16.356Z,14.80
2022-09-12T07:38:44.004Z,14.90
2022-09-12T07:41:12.777Z,15.70
2022-09-12T07:43:39.776Z,15.10
2022-09-12T07:46:06.637Z,15.60
2022-09-12T07:48:33.881Z,15.70
2022-09-12T07:51:06.193Z,15.40
2022-09-12T07:53:35.256Z,15.40
2022-09-12T07:56:03.174Z,15.40
2022-09-12T07:58:30.615Z,15.50
2022-09-12T08:01:25.746Z,15.50
2022-09-12T08:03:58.171Z,15.50
2022-09-12T08:06:26.988Z,15.60
2022-09-12T08:08:56.128Z,15.60
2022-09-12T08:11:24.263Z,15.70
2022-09-12T08:13:55.424Z,15.80
2022-09-12T08:16:25.361Z,16.20
2022-09-12T08:18:52.116Z,15.90
2022-09-12T08:21:21.848Z,16.00
2022-09-12T08:23:52.802Z,16.10
2022-09-12T08:26:19.570Z,16.10
2022-09-12T08:28:46.913Z,16.10
2022-09-12T08:31:16.731Z,16.10
2022-09-12T08:33:44.061Z,16.10
2022-09-12T08:36:16.379Z,16.20
2022-09-12T08:38:45.189Z,16.30
2022-09-12T08:41:17.689Z,16.30
2022-09-12T08:43:57.068Z,16.40
2022-09-12T08:46:36.130Z,18.20
2022-09-12T08:49:04.301Z,16.50
2022-09-12T08:51:34.599Z,16.70
2022-09-12T08:54:04.617Z,16.70
2022-09-12T08:56:37.221Z,16.70
2022-09-12T08:59:03.895Z,16.80
2022-09-12T09:01:42.786Z,16.80
2022-09-12T09:04:50.269Z,16.90
2022-09-12T09:07:33.122Z,17.00
2022-09-12T09:10:19.609Z,17.10
2022-09-12T09:13:01.937Z,17.30
2022-09-12T09:15:31.396Z,17.30
2022-09-12T09:18:04.255Z,17.40
2022-09-12T09:20:36.326Z,17.50
2022-09-12T09:23:12.012Z,17.60
2022-09-12T09:25:58.145Z,17.60
2022-09-12T09:28:39.879Z,17.70
2022-09-12T09:31:16.262Z,17.70
2022-09-12T09:33:43.725Z,17.70
2022-09-12T09:36:49.438Z,17.70
2022-09-12T09:40:03.498Z,17.80
2022-09-12T09:42:54.748Z,17.80
2022-09-12T09:45:24.470Z,17.80
2022-09-12T09:48:10.243Z,18.40
2022-09-12T09:50:37.572Z,17.90
2022-09-12T09:53:09.208Z,18.00
2022-09-12T09:55:42.250Z,18.10
2022-09-12T09:58:08.951Z,18.20
2022-09-12T10:00:37.950Z,18.30
2022-09-12T10:03:23.686Z,18.40
2022-09-12T10:06:08.169Z,18.40
2022-09-12T10:08:37.633Z,19.60
2022-09-12T10:11:16.198Z,18.50
2022-09-12T10:13:53.228Z,18.60
2022-09-12T10:16:24.350Z,18.60
2022-09-12T10:18:52.851Z,18.70
2022-09-12T10:21:47.544Z,18.80
2022-09-12T10:24:28.578Z,18.80
2022-09-12T10:27:05.613Z,18.80
2022-09-12T10:29:36.183Z,18.90
2022-09-12T10:32:07.222Z,18.80
2022-09-12T10:34:38.200Z,18.80
2022-09-12T10:37:07.990Z,18.70
2022-09-12T10:39:36.322Z,18.70
2022-09-12T10:42:05.446Z,18.70
2022-09-12T10:44:35.375Z,18.80
2022-09-12T10:47:21.410Z,18.80
2022-09-12T10:49:48.149Z,18.80
2022-09-12T10:52:23.295Z,19.50
2022-09-12T10:54:53.621Z,18.80
2022-09-12T10:57:38.281Z,18.80
2022-09-12T11:00:18.026Z,18.90
2022-09-12T11:03:10.900Z,18.90
2022-09-12T11:06:00.533Z,19.00
2022-09-12T11:08:49.003Z,19.00
2022-09-12T11:11:45.778Z,19.00
2022-09-12T11:14:33.478Z,19.10
2022-09-12T11:17:12.874Z,19.20
2022-09-12T11:19:59.505Z,19.20
2022-09-12T11:22:38.107Z,19.20
2022-09-12T11:25:22.422Z,19.30
2022-09-12T11:28:00.715Z,19.40
2022-09-12T11:30:39.149Z,19.50
2022-09-12T11:33:25.000Z,19.50
2022-09-12T11:35:55.422Z,19.60
2022-09-12T11:38:25.503Z,19.70
2022-09-12T11:41:00.043Z,19.70
2022-09-12T11:43:58.776Z,19.70
2022-09-12T11:46:34.519Z,19.80
2022-09-12T11:49:40.152Z,19.80
2022-09-12T11:52:19.977Z,19.80
2022-09-12T11:55:05.428Z,19.70
2022-09-12T11:57:45.760Z,19.60
2022-09-12T12:00:22.944Z,19.60
2022-09-12T12:03:20.395Z,19.40
2022-09-12T12:05:55.949Z,19.40
2022-09-12T12:08:24.762Z,19.30
2022-09-12T12:10:56.402Z,19.50
2022-09-12T12:13:31.225Z,19.40
2022-09-12T12:16:22.059Z,19.50
2022-09-12T12:18:55.823Z,19.40
2022-09-12T12:21:50.861Z,19.30
2022-09-12T12:24:20.385Z,19.20
2022-09-12T12:26:59.913Z,19.20
2022-09-12T12:29:43.591Z,19.20
2022-09-12T12:32:10.873Z,19.20
2022-09-12T12:34:44.919Z,19.20
2022-09-12T12:37:40.316Z,19.10
2022-09-12T12:40:23.022Z,19.20
2022-09-12T12:42:50.526Z,19.20
2022-09-12T12:45:18.044Z,19.20
2022-09-12T12:47:57.453Z,19.20
2022-09-12T12:50:27.017Z,19.20
2022-09-12T12:53:14.900Z,19.30
2022-09-12T12:55:44.632Z,19.40
2022-09-12T12:58:36.315Z,19.40
2022-09-12T13:01:22.873Z,19.60
2022-09-12T13:03:58.165Z,19.70
2022-09-12T13:06:34.150Z,19.80
2022-09-12T13:09:19.630Z,19.90
2022-09-12T13:11:47.113Z,19.90
2022-09-12T13:14:51.847Z,19.80
2022-09-12T13:17:43.466Z,19.80
2022-09-12T13:20:29.448Z,19.80
2022-09-12T13:22:57.813Z,19.70
2022-09-12T13:25:31.817Z,19.70
2022-09-12T13:28:03.685Z,19.60
2022-09-12T13:30:36.730Z,19.60
2022-09-12T13:33:24.203Z,19.60
2022-09-12T13:36:09.993Z,19.60
2022-09-12T13:38:42.905Z,19.50
2022-09-12T13:41:33.851Z,19.50
2022-09-12T13:44:02.324Z,19.50
2022-09-12T13:46:32.457Z,19.50
2022-09-12T13:49:01.871Z,19.50
2022-09-12T13:51:31.491Z,19.60
2022-09-12T13:54:02.987Z,19.60
2022-09-12T13:56:29.928Z,19.60
2022-09-12T13:58:59.277Z,19.60
2022-09-12T14:01:41.595Z,19.60
2022-09-12T14:04:44.518Z,19.60
2022-09-12T14:07:17.327Z,19.70
2022-09-12T14:09:52.374Z,19.70
2022-09-12T14:12:36.566Z,19.60
2022-09-12T14:15:03.905Z,19.50
2022-09-12T14:17:36.332Z,19.40
2022-09-12T14:20:13.528Z,19.40
2022-09-12T14:22:41.588Z,19.30
2022-09-12T14:25:16.302Z,19.10
2022-09-12T14:27:51.204Z,19.20
2022-09-12T14:30:36.770Z,19.10
2022-09-12T14:33:10.969Z,19.00
2022-09-12T14:35:43.387Z,18.90
2022-09-12T14:38:17.344Z,18.90
2022-09-12T14:40:50.688Z,18.80
2022-09-12T14:43:25.144Z,18.80
2022-09-12T14:46:05.627Z,18.70
2022-09-12T14:48:37.715Z,18.60
2022-09-12T14:51:05.384Z,18.60
2022-09-12T14:53:34.918Z,18.50
2022-09-12T14:56:14.370Z,18.50
2022-09-12T14:58:41.746Z,18.40
2022-09-12T15:01:08.562Z,18.30
2022-09-12T15:03:36.836Z,18.30
2022-09-12T15:06:08.042Z,18.20
2022-09-12T15:08:34.887Z,18.20
2022-09-12T15:11:01.669Z,18.20
2022-09-12T15:13:30.763Z,18.10
2022-09-12T15:15:59.893Z,18.10
2022-09-12T15:18:28.745Z,18.10
2022-09-12T15:21:04.781Z,18.00
2022-09-12T15:23:36.288Z,18.00
2022-09-12T15:26:03.907Z,17.90
2022-09-12T15:28:31.843Z,18.00
2022-09-12T15:31:04.648Z,17.90
2022-09-12T15:33:31.347Z,17.90
2022-09-12T15:35:58.010Z,17.90
2022-09-12T15:38:26.682Z,18.60
2022-09-12T15:40:54.483Z,17.80
2022-09-12T15:43:22.545Z,18.10
2022-09-12T15:45:53.315Z,17.80
2022-09-12T15:48:21.106Z,17.80
2022-09-12T15:50:48.540Z,17.80
2022-09-12T15:53:16.896Z,17.80
2022-09-12T15:55:44.618Z,17.90
2022-09-12T15:58:11.819Z,17.90
2022-09-12T16:00:38.808Z,17.90
2022-09-12T16:03:05.648Z,17.90
2022-09-12T16:05:32.698Z,17.90
2022-09-12T16:07:59.528Z,17.90
2022-09-12T16:10:30.235Z,17.90
2022-09-12T16:12:57.613Z,17.80
2022-09-12T16:15:26.072Z,17.80
2022-09-12T16:17:53.336Z,17.70
2022-09-12T16:20:20.943Z,17.70
2022-09-12T16:22:48.136Z,17.70
2022-09-12T16:25:14.986Z,17.60
2022-09-12T16:27:41.770Z,17.60
2022-09-12T16:30:09.577Z,17.50
2022-09-12T16:32:37.010Z,17.50
2022-09-12T16:35:04.578Z,17.40
2022-09-12T16:37:32.294Z,17.40
2022-09-12T16:39:59.152Z,17.30
2022-09-12T16:42:25.962Z,17.20
2022-09-12T16:44:52.619Z,17.20
2022-09-12T16:47:19.810Z,17.20
2022-09-12T16:49:46.517Z,17.10
2022-09-12T16:52:16.468Z,17.10
2022-09-12T16:54:44.433Z,17.00
2022-09-12T16:57:11.861Z,17.00
2022-09-12T16:59:38.597Z,16.90
2022-09-12T17:02:05.425Z,16.80
2022-09-12T17:04:32.209Z,16.80
2022-09-12T17:06:59.522Z,16.70
2022-09-12T17:09:28.118Z,16.60
2022-09-12T17:11:55.491Z,16.60
2022-09-12T17:14:22.291Z,16.50
2022-09-12T17:16:51.826Z,16.40
2022-09-12T17:19:29.991Z,16.30
2022-09-12T17:21:57.355Z,16.30
2022-09-12T17:24:24.561Z,16.30
2022-09-12T17:26:53.590Z,16.20
2022-09-12T17:29:21.206Z,16.20
2022-09-12T17:31:49.271Z,16.10
2022-09-12T17:34:18.001Z,16.10
2022-09-12T17:36:46.362Z,15.90
2022-09-12T17:39:14.586Z,15.90
2022-09-12T17:41:43.184Z,15.90
2022-09-12T17:44:15.509Z,15.80
2022-09-12T17:46:43.518Z,15.70
2022-09-12T17:49:16.285Z,15.60
2022-09-12T17:51:44.345Z,15.80
2022-09-12T17:54:15.977Z,15.50
2022-09-12T17:56:45.683Z,15.90
2022-09-12T17:59:19.692Z,15.40
2022-09-12T18:02:05.958Z,15.30
2022-09-12T18:04:33.121Z,15.30
2022-09-12T18:07:00.800Z,15.10
2022-09-12T18:09:28.550Z,15.10
2022-09-12T18:11:55.611Z,15.10
2022-09-12T18:14:23.513Z,15.00
2022-09-12T18:16:51.029Z,14.90
2022-09-12T18:19:18.951Z,15.00
2022-09-12T18:21:47.250Z,14.80
2022-09-12T18:24:14.413Z,14.80
2022-09-12T18:26:43.986Z,14.80
2022-09-12T18:29:11.925Z,14.70
2022-09-12T18:31:39.249Z,14.70
2022-09-12T18:34:08.092Z,14.70
2022-09-12T18:36:35.028Z,14.50
2022-09-12T18:39:02.061Z,14.80
2022-09-12T18:41:29.422Z,14.40
2022-09-12T18:43:58.461Z,14.40
2022-09-12T18:46:26.639Z,14.40
2022-09-12T18:48:58.058Z,14.30
2022-09-12T18:51:31.830Z,14.20
2022-09-12T18:54:03.402Z,14.20
2022-09-12T18:56:33.300Z,14.10
2022-09-12T18:59:02.486Z,14.10
2022-09-12T19:01:32.319Z,14.90
2022-09-12T19:04:01.416Z,14.00
2022-09-12T19:06:35.402Z,14.00
2022-09-12T19:09:07.578Z,13.90
2022-09-12T19:11:37.307Z,13.90
2022-09-12T19:14:04.805Z,13.80
2022-09-12T19:16:31.987Z,13.80
2022-09-12T19:18:59.724Z,13.70
2022-09-12T19:21:29.071Z,13.70
2022-09-12T19:23:58.415Z,13.60
2022-09-12T19:26:26.026Z,14.50
2022-09-12T19:28:53.855Z,14.10
2022-09-12T19:31:21.833Z,13.50
2022-09-12T19:33:49.618Z,14.10
2022-09-12T19:36:43.348Z,13.50
2022-09-12T19:39:06.720Z,14.10
2022-09-12T19:41:33.561Z,13.70
2022-09-12T19:44:00.435Z,13.30
2022-09-12T19:46:27.868Z,13.20
2022-09-12T19:48:54.742Z,14.00
2022-09-12T19:51:22.443Z,13.20
2022-09-12T19:53:50.330Z,13.10
2022-09-12T19:56:17.307Z,13.70
2022-09-12T19:58:46.681Z,13.10
2022-09-12T20:01:18.168Z,13.10
2022-09-12T20:03:45.846Z,13.00
2022-09-12T20:06:15.873Z,13.00
2022-09-12T20:08:43.975Z,12.90
2022-09-12T20:11:13.107Z,13.50
2022-09-12T20:13:40.306Z,12.90
2022-09-12T20:16:15.014Z,12.90
2022-09-12T20:18:45.822Z,12.80
2022-09-12T20:21:19.898Z,12.80
2022-09-12T20:23:46.986Z,12.70
2022-09-12T20:26:14.010Z,12.70
2022-09-12T20:28:42.135Z,12.70
2022-09-12T20:31:14.874Z,12.60
2022-09-12T20:33:41.769Z,12.60
2022-09-12T20:36:12.231Z,13.30
2022-09-12T20:38:39.900Z,12.50
2022-09-12T20:41:08.297Z,12.50
2022-09-12T20:43:35.460Z,13.30
2022-09-12T20:46:10.346Z,12.40
2022-09-12T20:48:40.136Z,12.40
2022-09-12T20:51:07.311Z,12.40
2022-09-12T20:53:35.197Z,12.30
2022-09-12T20:56:03.008Z,12.30
2022-09-12T20:58:29.685Z,12.30
2022-09-12T21:00:56.786Z,12.20
2022-09-12T21:03:23.580Z,12.20
2022-09-12T21:05:50.213Z,12.20
2022-09-12T21:08:17.248Z,12.10
2022-09-12T21:10:44.540Z,12.70
2022-09-12T21:13:12.088Z,12.10
2022-09-12T21:15:40.266Z,12.00
2022-09-12T21:18:07.699Z,12.00
2022-09-12T21:20:34.774Z,11.90
2022-09-12T21:23:01.707Z,11.90
2022-09-12T21:25:29.183Z,11.90
2022-09-12T21:27:56.035Z,11.90
2022-09-12T21:30:22.941Z,12.50
2022-09-12T21:32:49.732Z,11.80
2022-09-12T21:35:16.663Z,11.80
2022-09-12T21:37:43.396Z,11.70
2022-09-12T21:40:10.487Z,12.00
2022-09-12T21:42:37.449Z,11.70
2022-09-12T21:45:04.558Z,11.70
2022-09-12T21:47:31.265Z,11.60
2022-09-12T21:49:58.484Z,11.60
2022-09-12T21:52:25.359Z,12.60
2022-09-12T21:54:52.070Z,11.50
2022-09-12T21:57:18.732Z,11.50
2022-09-12T21:59:45.580Z,11.50
2022-09-12T22:02:12.473Z,11.50
2022-09-12T22:04:39.341Z,11.60
2022-09-12T22:07:06.288Z,12.50
2022-09-12T22:09:34.407Z,13.20
2022-09-12T22:12:02.236Z,11.40
2022-09-12T22:14:29.518Z,11.30
2022-09-12T22:16:56.779Z,11.30
2022-09-12T22:19:23.561Z,11.30
2022-09-12T22:22:08.969Z,11.30
2022-09-12T22:24:35.767Z,11.30
2022-09-12T22:27:05.377Z,11.20
2022-09-12T22:29:32.912Z,11.20
2022-09-12T22:32:00.822Z,11.20
2022-09-12T22:34:28.739Z,11.10
2022-09-12T22:36:55.907Z,11.10
2022-09-12T22:39:23.532Z,11.10
2022-09-12T22:41:50.906Z,11.00
2022-09-12T22:44:17.871Z,12.80
2022-09-12T22:46:45.170Z,11.00
2022-09-12T22:49:12.793Z,11.80
2022-09-12T22:51:40.166Z,12.00
2022-09-12T22:54:09.024Z,11.00
2022-09-12T22:56:35.713Z,11.00
2022-09-12T22:59:02.537Z,11.00
2022-09-12T23:01:30.268Z,11.00
2022-09-12T23:04:16.506Z,11.00
2022-09-12T23:06:43.185Z,11.90
2022-09-12T23:09:09.868Z,11.00
2022-09-12T23:11:37.111Z,11.00
2022-09-12T23:14:03.786Z,10.90
2022-09-12T23:16:32.099Z,11.10
2022-09-12T23:18:58.932Z,10.90
2022-09-12T23:21:25.775Z,11.30
2022-09-12T23:23:52.593Z,10.90
2022-09-12T23:26:24.888Z,10.90
2022-09-12T23:28:53.931Z,11.40
2022-09-12T23:31:21.849Z,10.90
2022-09-12T23:33:50.100Z,10.90
2022-09-12T23:36:16.777Z,10.80
2022-09-12T23:38:45.337Z,10.80
2022-09-12T23:41:14.391Z,10.80
2022-09-12T23:43:42.923Z,10.80
2022-09-12T23:46:09.785Z,10.70
2022-09-12T23:48:36.600Z,10.70
2022-09-12T23:51:03.339Z,10.70
2022-09-12T23:53:30.151Z,10.70
2022-09-12T23:55:57.192Z,12.00
2022-09-12T23:58:24.055Z,10.60
